sensor_id;sensor_type;location;lat;lon;timestamp;temperature;humidity
17529;DHT22;8882;53.192;8.184;2023-06-22T04:30:57;17.40;99.90
17529;DHT22;8882;53.192;8.184;2023-06-22T04:33:28;17.50;99.90
17529;DHT22;8882;53.192;8.184;2023-06-22T04:35:58;17.50;99.90
17529;DHT22;8882;53.192;8.184;2023-06-22T04:38:26;17.50;99.90
17529;DHT22;8882;53.192;8.184;2023-06-22T04:40:51;17.50;99.90
17529;DHT22;8882;53.192;8.184;2023-06-22T04:43:19;17.50;99.90
17529;DHT22;8882;53.192;8.184;2023-06-22T04:45:44;17.60;99.90
17529;DHT22;8882;53.192;8.184;2023-06-22T04:48:10;17.60;99.90
17529;DHT22;8882;53.192;8.184;2023-06-22T04:50:41;17.60;99.90
17529;DHT22;8882;53.192;8.184;2023-06-22T04:53:06;17.70;99.90
17529;DHT22;8882;53.192;8.184;2023-06-22T04:55:32;17.70;99.90
17529;DHT22;8882;53.192;8.184;2023-06-22T04:57:58;17.70;99.90
17529;DHT22;8882;53.192;8.184;2023-06-22T05:00:30;17.70;99.90
17529;DHT22;8882;53.192;8.184;2023-06-22T05:02:56;17.80;99.90
17529;DHT22;8882;53.192;8.184;2023-06-22T05:05:23;17.80;99.90
17529;DHT22;8882;53.192;8.184;2023-06-22T05:07:50;17.80;99.90
17529;DHT22;8882;53.192;8.184;2023-06-22T05:10:19;17.90;99.90
17529;DHT22;8882;53.192;8.184;2023-06-22T05:12:45;17.90;99.90
17529;DHT22;8882;53.192;8.184;2023-06-22T05:15:11;17.90;99.90
17529;DHT22;8882;53.192;8.184;2023-06-22T05:17:37;17.90;99.90
17529;DHT22;8882;53.192;8.184;2023-06-22T05:20:09;18.00;99.90
17529;DHT22;8882;53.192;8.184;2023-06-22T05:22:35;18.00;99.90
17529;DHT22;8882;53.192;8.184;2023-06-22T05:25:00;18.00;99.90
17529;DHT22;8882;53.192;8.184;2023-06-22T05:27:26;18.10;99.90
17529;DHT22;8882;53.192;8.184;2023-06-22T05:29:51;18.10;99.90
17529;DHT22;8882;53.192;8.184;2023-06-22T05:32:17;18.10;99.90
17529;DHT22;8882;53.192;8.184;2023-06-22T05:34:44;18.20;99.90
17529;DHT22;8882;53.192;8.184;2023-06-22T05:37:09;18.30;99.90
17529;DHT22;8882;53.192;8.184;2023-06-22T05:39:35;18.50;99.90
17529;DHT22;8882;53.192;8.184;2023-06-22T05:42:04;18.70;99.90
17529;DHT22;8882;53.192;8.184;2023-06-22T05:44:30;18.80;99.90
17529;DHT22;8882;53.192;8.184;2023-06-22T05:46:55;19.00;99.90
17529;DHT22;8882;53.192;8.184;2023-06-22T05:49:21;19.20;99.90
17529;DHT22;8882;53.192;8.184;2023-06-22T05:51:48;19.50;99.90
17529;DHT22;8882;53.192;8.184;2023-06-22T05:54:13;19.70;99.90
17529;DHT22;8882;53.192;8.184;2023-06-22T05:56:41;19.90;99.90
17529;DHT22;8882;53.192;8.184;2023-06-22T05:59:06;20.00;99.90
17529;DHT22;8882;53.192;8.184;2023-06-22T06:01:32;20.10;99.90
17529;DHT22;8882;53.192;8.184;2023-06-22T06:04:00;20.20;99.90
17529;DHT22;8882;53.192;8.184;2023-06-22T06:06:25;20.20;99.90
17529;DHT22;8882;53.192;8.184;2023-06-22T06:08:54;20.30;99.90
17529;DHT22;8882;53.192;8.184;2023-06-22T06:11:19;20.40;99.90
17529;DHT22;8882;53.192;8.184;2023-06-22T06:13:45;20.60;99.90
17529;DHT22;8882;53.192;8.184;2023-06-22T06:16:10;20.60;99.90
17529;DHT22;8882;53.192;8.184;2023-06-22T06:18:36;20.80;99.90
17529;DHT22;8882;53.192;8.184;2023-06-22T06:21:03;21.00;99.90
17529;DHT22;8882;53.192;8.184;2023-06-22T06:23:28;21.20;99.90
17529;DHT22;8882;53.192;8.184;2023-06-22T06:25:54;21.40;99.90
17529;DHT22;8882;53.192;8.184;2023-06-22T06:28:19;21.60;99.90
17529;DHT22;8882;53.192;8.184;2023-06-22T06:33:12;21.80;99.90
17529;DHT22;8882;53.192;8.184;2023-06-22T06:35:38;21.80;99.90
17529;DHT22;8882;53.192;8.184;2023-06-22T06:38:03;22.00;99.90
17529;DHT22;8882;53.192;8.184;2023-06-22T06:40:29;22.10;99.90
17529;DHT22;8882;53.192;8.184;2023-06-22T06:42:55;22.00;99.90
17529;DHT22;8882;53.192;8.184;2023-06-22T06:45:22;22.00;99.90
17529;DHT22;8882;53.192;8.184;2023-06-22T06:47:48;22.20;99.90
17529;DHT22;8882;53.192;8.184;2023-06-22T06:50:14;22.20;99.90
17529;DHT22;8882;53.192;8.184;2023-06-22T06:52:40;22.30;99.90
17529;DHT22;8882;53.192;8.184;2023-06-22T06:55:06;22.40;99.90
17529;DHT22;8882;53.192;8.184;2023-06-22T06:57:34;22.30;99.90
17529;DHT22;8882;53.192;8.184;2023-06-22T07:00:00;22.40;99.90
17529;DHT22;8882;53.192;8.184;2023-06-22T07:02:26;22.50;1.00
17529;DHT22;8882;53.192;8.184;2023-06-22T07:04:53;22.50;99.90
17529;DHT22;8882;53.192;8.184;2023-06-22T07:07:20;22.50;1.00
17529;DHT22;8882;53.192;8.184;2023-06-22T07:09:46;22.60;99.90
17529;DHT22;8882;53.192;8.184;2023-06-22T07:12:12;22.70;99.90
17529;DHT22;8882;53.192;8.184;2023-06-22T07:14:37;22.50;1.00
17529;DHT22;8882;53.192;8.184;2023-06-22T07:17:03;22.60;1.00
17529;DHT22;8882;53.192;8.184;2023-06-22T07:19:28;22.70;97.20
17529;DHT22;8882;53.192;8.184;2023-06-22T07:21:55;22.80;99.90
17529;DHT22;8882;53.192;8.184;2023-06-22T07:24:21;22.90;99.90
17529;DHT22;8882;53.192;8.184;2023-06-22T07:26:50;22.90;99.90
17529;DHT22;8882;53.192;8.184;2023-06-22T07:29:17;23.20;99.90
17529;DHT22;8882;53.192;8.184;2023-06-22T07:31:43;23.20;99.90
17529;DHT22;8882;53.192;8.184;2023-06-22T07:34:09;23.40;99.90
17529;DHT22;8882;53.192;8.184;2023-06-22T07:36:34;23.30;99.90
17529;DHT22;8882;53.192;8.184;2023-06-22T07:39:01;23.40;99.90
17529;DHT22;8882;53.192;8.184;2023-06-22T07:41:28;23.40;58.50
17529;DHT22;8882;53.192;8.184;2023-06-22T07:43:53;23.40;99.90
17529;DHT22;8882;53.192;8.184;2023-06-22T07:46:19;23.50;99.90
17529;DHT22;8882;53.192;8.184;2023-06-22T07:48:44;23.60;99.90
17529;DHT22;8882;53.192;8.184;2023-06-22T07:51:10;23.50;99.90
17529;DHT22;8882;53.192;8.184;2023-06-22T07:53:43;23.60;99.90
17529;DHT22;8882;53.192;8.184;2023-06-22T07:56:12;23.70;99.90
17529;DHT22;8882;53.192;8.184;2023-06-22T07:58:37;23.70;99.90
17529;DHT22;8882;53.192;8.184;2023-06-22T08:01:03;23.60;99.90
17529;DHT22;8882;53.192;8.184;2023-06-22T08:03:29;23.70;99.90
17529;DHT22;8882;53.192;8.184;2023-06-22T08:05:55;23.80;99.90
17529;DHT22;8882;53.192;8.184;2023-06-22T08:08:21;23.90;99.90
17529;DHT22;8882;53.192;8.184;2023-06-22T08:10:46;24.00;99.90
17529;DHT22;8882;53.192;8.184;2023-06-22T08:13:12;24.00;99.90
17529;DHT22;8882;53.192;8.184;2023-06-22T08:15:37;24.10;99.90
17529;DHT22;8882;53.192;8.184;2023-06-22T08:18:03;24.30;99.90
17529;DHT22;8882;53.192;8.184;2023-06-22T08:20:28;24.20;99.90
17529;DHT22;8882;53.192;8.184;2023-06-22T08:22:55;24.20;99.90
17529;DHT22;8882;53.192;8.184;2023-06-22T08:25:21;24.30;99.90
17529;DHT22;8882;53.192;8.184;2023-06-22T08:27:47;24.60;99.90
17529;DHT22;8882;53.192;8.184;2023-06-22T08:30:14;24.70;99.90
17529;DHT22;8882;53.192;8.184;2023-06-22T08:32:39;24.70;99.90
17529;DHT22;8882;53.192;8.184;2023-06-22T08:35:05;24.70;99.90
17529;DHT22;8882;53.192;8.184;2023-06-22T08:37:34;24.70;99.90
17529;DHT22;8882;53.192;8.184;2023-06-22T08:40:02;24.90;99.90
17529;DHT22;8882;53.192;8.184;2023-06-22T08:42:31;24.90;99.90
17529;DHT22;8882;53.192;8.184;2023-06-22T08:44:57;24.90;99.90
17529;DHT22;8882;53.192;8.184;2023-06-22T08:47:22;25.00;99.90
17529;DHT22;8882;53.192;8.184;2023-06-22T08:49:48;25.10;99.90
17529;DHT22;8882;53.192;8.184;2023-06-22T08:52:14;25.10;99.90
17529;DHT22;8882;53.192;8.184;2023-06-22T08:54:40;25.30;99.90
17529;DHT22;8882;53.192;8.184;2023-06-22T08:57:05;25.10;99.90
17529;DHT22;8882;53.192;8.184;2023-06-22T08:59:31;25.10;99.90
17529;DHT22;8882;53.192;8.184;2023-06-22T09:01:57;25.10;99.90
17529;DHT22;8882;53.192;8.184;2023-06-22T09:04:22;25.20;99.90
17529;DHT22;8882;53.192;8.184;2023-06-22T09:06:48;25.40;99.90
17529;DHT22;8882;53.192;8.184;2023-06-22T09:09:15;25.60;15.80
17529;DHT22;8882;53.192;8.184;2023-06-22T09:11:41;25.70;1.00
17529;DHT22;8882;53.192;8.184;2023-06-22T09:14:08;25.90;1.00
17529;DHT22;8882;53.192;8.184;2023-06-22T09:16:33;25.90;1.00
17529;DHT22;8882;53.192;8.184;2023-06-22T09:18:59;25.90;99.90
17529;DHT22;8882;53.192;8.184;2023-06-22T09:21:25;25.80;99.90
17529;DHT22;8882;53.192;8.184;2023-06-22T09:23:50;26.00;99.90
17529;DHT22;8882;53.192;8.184;2023-06-22T09:26:17;26.00;99.90
17529;DHT22;8882;53.192;8.184;2023-06-22T09:28:43;26.20;99.90
17529;DHT22;8882;53.192;8.184;2023-06-22T09:31:08;26.30;99.90
17529;DHT22;8882;53.192;8.184;2023-06-22T09:33:35;26.10;99.90
17529;DHT22;8882;53.192;8.184;2023-06-22T09:36:00;26.30;99.90
17529;DHT22;8882;53.192;8.184;2023-06-22T09:38:26;26.00;99.90
17529;DHT22;8882;53.192;8.184;2023-06-22T09:40:51;26.00;99.90
17529;DHT22;8882;53.192;8.184;2023-06-22T09:43:17;26.10;99.90
17529;DHT22;8882;53.192;8.184;2023-06-22T09:45:42;26.10;99.90
17529;DHT22;8882;53.192;8.184;2023-06-22T09:48:08;26.10;99.90
17529;DHT22;8882;53.192;8.184;2023-06-22T09:50:35;26.20;99.90
17529;DHT22;8882;53.192;8.184;2023-06-22T09:53:01;26.40;99.90
17529;DHT22;8882;53.192;8.184;2023-06-22T09:55:26;26.50;99.90
17529;DHT22;8882;53.192;8.184;2023-06-22T09:57:52;26.40;99.90
17529;DHT22;8882;53.192;8.184;2023-06-22T10:00:18;26.40;99.90
17529;DHT22;8882;53.192;8.184;2023-06-22T10:02:44;26.50;99.90
17529;DHT22;8882;53.192;8.184;2023-06-22T10:05:10;26.40;99.90
17529;DHT22;8882;53.192;8.184;2023-06-22T10:07:35;26.30;99.90
17529;DHT22;8882;53.192;8.184;2023-06-22T10:10:06;26.20;99.90
17529;DHT22;8882;53.192;8.184;2023-06-22T10:12:32;26.40;99.90
17529;DHT22;8882;53.192;8.184;2023-06-22T10:14:57;26.40;99.90
17529;DHT22;8882;53.192;8.184;2023-06-22T10:17:23;26.60;99.90
17529;DHT22;8882;53.192;8.184;2023-06-22T10:19:48;26.70;99.90
17529;DHT22;8882;53.192;8.184;2023-06-22T10:22:14;26.80;99.90
17529;DHT22;8882;53.192;8.184;2023-06-22T10:24:39;26.70;99.90
17529;DHT22;8882;53.192;8.184;2023-06-22T10:27:10;26.60;99.90
17529;DHT22;8882;53.192;8.184;2023-06-22T10:29:36;26.70;99.90
17529;DHT22;8882;53.192;8.184;2023-06-22T10:32:01;26.60;99.90
17529;DHT22;8882;53.192;8.184;2023-06-22T10:34:27;26.60;99.90
17529;DHT22;8882;53.192;8.184;2023-06-22T10:36:52;26.90;99.90
17529;DHT22;8882;53.192;8.184;2023-06-22T10:39:18;27.00;99.90
17529;DHT22;8882;53.192;8.184;2023-06-22T10:41:44;27.10;99.90
17529;DHT22;8882;53.192;8.184;2023-06-22T10:44:09;27.10;99.90
17529;DHT22;8882;53.192;8.184;2023-06-22T10:46:36;27.10;99.90
17529;DHT22;8882;53.192;8.184;2023-06-22T10:49:01;27.20;99.90
17529;DHT22;8882;53.192;8.184;2023-06-22T10:51:27;27.30;99.90
17529;DHT22;8882;53.192;8.184;2023-06-22T10:53:53;27.20;99.90
17529;DHT22;8882;53.192;8.184;2023-06-22T10:56:19;27.00;99.90
17529;DHT22;8882;53.192;8.184;2023-06-22T10:58:45;27.00;99.90
17529;DHT22;8882;53.192;8.184;2023-06-22T11:01:11;27.20;99.90
17529;DHT22;8882;53.192;8.184;2023-06-22T11:03:36;27.20;99.90
17529;DHT22;8882;53.192;8.184;2023-06-22T11:06:02;27.20;99.90
17529;DHT22;8882;53.192;8.184;2023-06-22T11:08:28;27.20;99.90
17529;DHT22;8882;53.192;8.184;2023-06-22T11:10:53;27.20;99.90
17529;DHT22;8882;53.192;8.184;2023-06-22T11:13:19;27.20;99.90
17529;DHT22;8882;53.192;8.184;2023-06-22T11:15:44;27.50;99.90
17529;DHT22;8882;53.192;8.184;2023-06-22T11:18:10;27.40;99.90
17529;DHT22;8882;53.192;8.184;2023-06-22T11:20:35;27.40;99.90
17529;DHT22;8882;53.192;8.184;2023-06-22T11:23:05;27.30;99.90
17529;DHT22;8882;53.192;8.184;2023-06-22T11:25:31;27.30;99.90
17529;DHT22;8882;53.192;8.184;2023-06-22T11:27:57;27.40;99.90
17529;DHT22;8882;53.192;8.184;2023-06-22T11:30:22;27.30;99.90
17529;DHT22;8882;53.192;8.184;2023-06-22T11:32:49;27.40;99.90
17529;DHT22;8882;53.192;8.184;2023-06-22T11:35:14;27.30;99.90
17529;DHT22;8882;53.192;8.184;2023-06-22T11:37:40;27.50;99.90
17529;DHT22;8882;53.192;8.184;2023-06-22T11:40:05;27.70;99.90
17529;DHT22;8882;53.192;8.184;2023-06-22T11:42:34;27.70;99.90
17529;DHT22;8882;53.192;8.184;2023-06-22T11:45:00;27.60;99.90
17529;DHT22;8882;53.192;8.184;2023-06-22T11:47:25;27.70;99.90
17529;DHT22;8882;53.192;8.184;2023-06-22T11:49:51;27.60;99.90
17529;DHT22;8882;53.192;8.184;2023-06-22T11:52:16;27.50;99.90
17529;DHT22;8882;53.192;8.184;2023-06-22T11:54:43;27.80;99.90
17529;DHT22;8882;53.192;8.184;2023-06-22T11:57:08;27.80;99.90
17529;DHT22;8882;53.192;8.184;2023-06-22T11:59:34;28.00;99.90
17529;DHT22;8882;53.192;8.184;2023-06-22T12:01:59;28.00;99.90
17529;DHT22;8882;53.192;8.184;2023-06-22T12:04:25;28.10;99.90
17529;DHT22;8882;53.192;8.184;2023-06-22T12:06:51;27.90;99.90
17529;DHT22;8882;53.192;8.184;2023-06-22T12:09:16;27.90;99.90
17529;DHT22;8882;53.192;8.184;2023-06-22T12:11:42;27.70;99.90
17529;DHT22;8882;53.192;8.184;2023-06-22T12:14:07;27.70;99.90
17529;DHT22;8882;53.192;8.184;2023-06-22T12:16:33;27.70;99.90
17529;DHT22;8882;53.192;8.184;2023-06-22T12:18:58;27.60;99.90
17529;DHT22;8882;53.192;8.184;2023-06-22T12:21:24;27.50;99.90
17529;DHT22;8882;53.192;8.184;2023-06-22T12:23:49;27.20;99.90
17529;DHT22;8882;53.192;8.184;2023-06-22T12:26:15;27.20;99.90
17529;DHT22;8882;53.192;8.184;2023-06-22T12:28:41;27.10;99.90
17529;DHT22;8882;53.192;8.184;2023-06-22T12:31:06;27.00;99.90
17529;DHT22;8882;53.192;8.184;2023-06-22T12:33:32;26.90;99.90
17529;DHT22;8882;53.192;8.184;2023-06-22T12:35:57;27.00;99.90
17529;DHT22;8882;53.192;8.184;2023-06-22T12:38:23;27.00;99.90
17529;DHT22;8882;53.192;8.184;2023-06-22T12:40:51;26.90;99.90
17529;DHT22;8882;53.192;8.184;2023-06-22T12:43:16;26.80;99.90
17529;DHT22;8882;53.192;8.184;2023-06-22T12:45:42;26.80;99.90
17529;DHT22;8882;53.192;8.184;2023-06-22T12:48:07;26.70;99.90
17529;DHT22;8882;53.192;8.184;2023-06-22T12:50:34;26.70;99.90
17529;DHT22;8882;53.192;8.184;2023-06-22T12:52:59;26.70;99.90
17529;DHT22;8882;53.192;8.184;2023-06-22T12:55:27;26.60;99.90
17529;DHT22;8882;53.192;8.184;2023-06-22T12:57:52;26.50;99.90
17529;DHT22;8882;53.192;8.184;2023-06-22T13:00:18;26.50;99.90
17529;DHT22;8882;53.192;8.184;2023-06-22T13:02:45;26.50;99.90
17529;DHT22;8882;53.192;8.184;2023-06-22T13:05:10;26.60;99.90
17529;DHT22;8882;53.192;8.184;2023-06-22T13:07:36;26.60;99.90
17529;DHT22;8882;53.192;8.184;2023-06-22T13:10:01;26.50;99.90
17529;DHT22;8882;53.192;8.184;2023-06-22T13:12:27;26.50;99.90
17529;DHT22;8882;53.192;8.184;2023-06-22T13:14:53;26.50;99.90
17529;DHT22;8882;53.192;8.184;2023-06-22T13:17:18;26.50;99.90
17529;DHT22;8882;53.192;8.184;2023-06-22T13:19:43;26.40;99.90
17529;DHT22;8882;53.192;8.184;2023-06-22T13:22:32;26.30;99.90
17529;DHT22;8882;53.192;8.184;2023-06-22T13:24:58;26.30;99.90
17529;DHT22;8882;53.192;8.184;2023-06-22T13:27:24;26.20;99.90
17529;DHT22;8882;53.192;8.184;2023-06-22T13:29:50;26.20;99.90
17529;DHT22;8882;53.192;8.184;2023-06-22T13:32:15;26.10;99.90
17529;DHT22;8882;53.192;8.184;2023-06-22T13:34:42;26.10;99.90
17529;DHT22;8882;53.192;8.184;2023-06-22T13:37:07;26.10;99.90
17529;DHT22;8882;53.192;8.184;2023-06-22T13:39:33;26.00;99.90
17529;DHT22;8882;53.192;8.184;2023-06-22T13:41:58;25.90;99.90
17529;DHT22;8882;53.192;8.184;2023-06-22T13:44:24;25.60;99.90
17529;DHT22;8882;53.192;8.184;2023-06-22T13:46:54;25.50;99.90
17529;DHT22;8882;53.192;8.184;2023-06-22T13:49:20;25.20;99.90
17529;DHT22;8882;53.192;8.184;2023-06-22T13:51:47;25.10;99.90
17529;DHT22;8882;53.192;8.184;2023-06-22T13:54:13;25.10;99.90
17529;DHT22;8882;53.192;8.184;2023-06-22T13:56:39;25.10;99.90
17529;DHT22;8882;53.192;8.184;2023-06-22T13:59:04;25.10;99.90
17529;DHT22;8882;53.192;8.184;2023-06-22T14:01:30;25.10;99.90
17529;DHT22;8882;53.192;8.184;2023-06-22T14:03:55;25.20;1.00
17529;DHT22;8882;53.192;8.184;2023-06-22T14:06:21;25.20;99.90
17529;DHT22;8882;53.192;8.184;2023-06-22T14:08:46;25.30;99.90
17529;DHT22;8882;53.192;8.184;2023-06-22T14:11:12;25.20;99.90
17529;DHT22;8882;53.192;8.184;2023-06-22T14:13:37;25.30;99.90
17529;DHT22;8882;53.192;8.184;2023-06-22T14:16:03;25.20;99.90
17529;DHT22;8882;53.192;8.184;2023-06-22T14:18:29;25.00;99.90
17529;DHT22;8882;53.192;8.184;2023-06-22T14:20:55;24.90;99.90
17529;DHT22;8882;53.192;8.184;2023-06-22T14:23:20;24.90;99.90
17529;DHT22;8882;53.192;8.184;2023-06-22T14:25:46;24.80;99.90
17529;DHT22;8882;53.192;8.184;2023-06-22T14:28:12;24.70;99.90
17529;DHT22;8882;53.192;8.184;2023-06-22T14:30:37;24.70;99.90
17529;DHT22;8882;53.192;8.184;2023-06-22T14:33:03;24.50;99.90
17529;DHT22;8882;53.192;8.184;2023-06-22T14:35:28;24.40;99.90
17529;DHT22;8882;53.192;8.184;2023-06-22T14:37:54;24.30;99.90
17529;DHT22;8882;53.192;8.184;2023-06-22T14:40:20;24.30;99.90
17529;DHT22;8882;53.192;8.184;2023-06-22T14:42:45;24.30;99.90
17529;DHT22;8882;53.192;8.184;2023-06-22T14:45:12;24.30;99.90
17529;DHT22;8882;53.192;8.184;2023-06-22T14:47:38;24.10;99.90
17529;DHT22;8882;53.192;8.184;2023-06-22T14:50:05;24.00;99.90
17529;DHT22;8882;53.192;8.184;2023-06-22T14:52:31;23.90;99.90
17529;DHT22;8882;53.192;8.184;2023-06-22T14:54:56;23.70;99.90
17529;DHT22;8882;53.192;8.184;2023-06-22T14:57:22;23.60;99.90
17529;DHT22;8882;53.192;8.184;2023-06-22T14:59:49;23.50;99.90
17529;DHT22;8882;53.192;8.184;2023-06-22T15:02:15;23.50;99.90
17529;DHT22;8882;53.192;8.184;2023-06-22T15:04:40;23.40;99.90
17529;DHT22;8882;53.192;8.184;2023-06-22T15:07:06;23.30;99.90
17529;DHT22;8882;53.192;8.184;2023-06-22T15:09:32;23.40;99.90
17529;DHT22;8882;53.192;8.184;2023-06-22T15:11:58;23.20;99.90
17529;DHT22;8882;53.192;8.184;2023-06-22T15:14:27;23.30;99.90
17529;DHT22;8882;53.192;8.184;2023-06-22T15:16:53;23.30;99.90
17529;DHT22;8882;53.192;8.184;2023-06-22T15:19:18;23.20;99.90
17529;DHT22;8882;53.192;8.184;2023-06-22T15:21:44;23.10;99.90
17529;DHT22;8882;53.192;8.184;2023-06-22T15:24:10;23.00;99.90
17529;DHT22;8882;53.192;8.184;2023-06-22T15:26:36;23.00;99.90
17529;DHT22;8882;53.192;8.184;2023-06-22T15:29:01;22.90;99.90
17529;DHT22;8882;53.192;8.184;2023-06-22T15:31:27;22.90;99.90
17529;DHT22;8882;53.192;8.184;2023-06-22T15:33:53;22.90;99.90
17529;DHT22;8882;53.192;8.184;2023-06-22T15:36:18;22.80;99.90
17529;DHT22;8882;53.192;8.184;2023-06-22T15:38:44;22.70;99.90
17529;DHT22;8882;53.192;8.184;2023-06-22T15:41:09;22.70;99.90
17529;DHT22;8882;53.192;8.184;2023-06-22T15:43:35;22.70;99.90
17529;DHT22;8882;53.192;8.184;2023-06-22T15:46:00;22.60;99.90
17529;DHT22;8882;53.192;8.184;2023-06-22T15:48:26;22.70;99.90
17529;DHT22;8882;53.192;8.184;2023-06-22T15:50:51;22.70;99.90
17529;DHT22;8882;53.192;8.184;2023-06-22T15:53:17;22.60;99.90
17529;DHT22;8882;53.192;8.184;2023-06-22T15:55:43;22.50;99.90
17529;DHT22;8882;53.192;8.184;2023-06-22T15:58:08;22.40;99.90
17529;DHT22;8882;53.192;8.184;2023-06-22T16:00:35;22.30;99.90
17529;DHT22;8882;53.192;8.184;2023-06-22T16:03:00;22.30;99.90
17529;DHT22;8882;53.192;8.184;2023-06-22T16:05:26;22.30;99.90
17529;DHT22;8882;53.192;8.184;2023-06-22T16:07:54;22.20;99.90
17529;DHT22;8882;53.192;8.184;2023-06-22T16:10:20;22.10;99.90
17529;DHT22;8882;53.192;8.184;2023-06-22T16:12:46;22.00;99.90
17529;DHT22;8882;53.192;8.184;2023-06-22T16:15:11;21.80;99.90
17529;DHT22;8882;53.192;8.184;2023-06-22T16:17:37;21.80;99.90
17529;DHT22;8882;53.192;8.184;2023-06-22T16:20:07;21.70;99.90
17529;DHT22;8882;53.192;8.184;2023-06-22T16:22:33;21.60;99.90
17529;DHT22;8882;53.192;8.184;2023-06-22T16:24:59;21.60;99.90
17529;DHT22;8882;53.192;8.184;2023-06-22T16:27:25;21.70;99.90
17529;DHT22;8882;53.192;8.184;2023-06-22T16:29:53;21.60;99.90
17529;DHT22;8882;53.192;8.184;2023-06-22T16:32:18;21.60;99.90
17529;DHT22;8882;53.192;8.184;2023-06-22T16:34:44;21.60;99.90
17529;DHT22;8882;53.192;8.184;2023-06-22T16:37:11;21.60;99.90
17529;DHT22;8882;53.192;8.184;2023-06-22T16:39:37;21.50;99.90
17529;DHT22;8882;53.192;8.184;2023-06-22T16:42:03;21.50;99.90
17529;DHT22;8882;53.192;8.184;2023-06-22T16:44:28;21.40;99.90
17529;DHT22;8882;53.192;8.184;2023-06-22T16:46:54;21.50;99.90
17529;DHT22;8882;53.192;8.184;2023-06-22T16:49:19;21.50;99.90
17529;DHT22;8882;53.192;8.184;2023-06-22T16:51:45;21.50;99.90
17529;DHT22;8882;53.192;8.184;2023-06-22T16:54:11;21.50;99.90
17529;DHT22;8882;53.192;8.184;2023-06-22T16:56:37;21.50;99.90
17529;DHT22;8882;53.192;8.184;2023-06-22T16:59:02;21.50;99.90
17529;DHT22;8882;53.192;8.184;2023-06-22T17:01:29;21.50;99.90
17529;DHT22;8882;53.192;8.184;2023-06-22T17:04:04;21.50;99.90
17529;DHT22;8882;53.192;8.184;2023-06-22T17:06:31;21.40;99.90
17529;DHT22;8882;53.192;8.184;2023-06-22T17:08:59;21.50;99.90
17529;DHT22;8882;53.192;8.184;2023-06-22T17:11:26;21.40;99.90
17529;DHT22;8882;53.192;8.184;2023-06-22T17:13:54;21.40;99.90
17529;DHT22;8882;53.192;8.184;2023-06-22T17:16:19;21.40;99.90
17529;DHT22;8882;53.192;8.184;2023-06-22T17:18:45;21.40;99.90
17529;DHT22;8882;53.192;8.184;2023-06-22T17:21:12;21.40;99.90
17529;DHT22;8882;53.192;8.184;2023-06-22T17:23:38;21.30;99.90
17529;DHT22;8882;53.192;8.184;2023-06-22T17:26:05;21.40;99.90
17529;DHT22;8882;53.192;8.184;2023-06-22T17:28:50;21.30;99.90
17529;DHT22;8882;53.192;8.184;2023-06-22T17:31:17;21.30;99.90
17529;DHT22;8882;53.192;8.184;2023-06-22T17:33:43;21.40;99.90
17529;DHT22;8882;53.192;8.184;2023-06-22T17:36:13;21.40;99.90
17529;DHT22;8882;53.192;8.184;2023-06-22T17:38:39;21.40;99.90
17529;DHT22;8882;53.192;8.184;2023-06-22T17:41:04;21.30;99.90
17529;DHT22;8882;53.192;8.184;2023-06-22T17:43:30;21.30;99.90
17529;DHT22;8882;53.192;8.184;2023-06-22T17:45:59;21.30;99.90
17529;DHT22;8882;53.192;8.184;2023-06-22T17:48:25;21.30;99.90
17529;DHT22;8882;53.192;8.184;2023-06-22T17:50:51;21.30;99.90
17529;DHT22;8882;53.192;8.184;2023-06-22T17:53:17;21.30;99.90
17529;DHT22;8882;53.192;8.184;2023-06-22T17:55:42;21.30;99.90
17529;DHT22;8882;53.192;8.184;2023-06-22T17:58:08;21.30;99.90
17529;DHT22;8882;53.192;8.184;2023-06-22T18:00:35;21.30;99.90
17529;DHT22;8882;53.192;8.184;2023-06-22T18:03:01;21.30;99.90
17529;DHT22;8882;53.192;8.184;2023-06-22T18:05:34;21.30;99.90
17529;DHT22;8882;53.192;8.184;2023-06-22T18:08:01;21.30;99.90
17529;DHT22;8882;53.192;8.184;2023-06-22T18:10:29;21.30;99.90
17529;DHT22;8882;53.192;8.184;2023-06-22T18:12:55;21.30;99.90
17529;DHT22;8882;53.192;8.184;2023-06-22T18:15:23;21.30;99.90
17529;DHT22;8882;53.192;8.184;2023-06-22T18:17:50;21.30;99.90
17529;DHT22;8882;53.192;8.184;2023-06-22T18:20:16;21.30;99.90
17529;DHT22;8882;53.192;8.184;2023-06-22T18:22:42;21.30;99.90
17529;DHT22;8882;53.192;8.184;2023-06-22T18:25:08;21.20;99.90
17529;DHT22;8882;53.192;8.184;2023-06-22T18:27:36;21.30;99.90
17529;DHT22;8882;53.192;8.184;2023-06-22T18:30:03;21.30;99.90
17529;DHT22;8882;53.192;8.184;2023-06-22T18:32:30;21.30;99.90
17529;DHT22;8882;53.192;8.184;2023-06-22T18:34:55;21.20;99.90
17529;DHT22;8882;53.192;8.184;2023-06-22T18:37:21;21.30;99.90
17529;DHT22;8882;53.192;8.184;2023-06-22T18:39:52;21.30;99.90
17529;DHT22;8882;53.192;8.184;2023-06-22T18:42:18;21.30;99.90
17529;DHT22;8882;53.192;8.184;2023-06-22T18:44:44;21.30;99.90
17529;DHT22;8882;53.192;8.184;2023-06-22T18:47:28;21.30;99.90
17529;DHT22;8882;53.192;8.184;2023-06-22T18:50:07;21.40;99.90
17529;DHT22;8882;53.192;8.184;2023-06-22T18:52:34;21.40;99.90
17529;DHT22;8882;53.192;8.184;2023-06-22T18:55:04;21.30;99.90
17529;DHT22;8882;53.192;8.184;2023-06-22T18:57:32;21.20;99.90
17529;DHT22;8882;53.192;8.184;2023-06-22T18:59:59;21.10;99.90
17529;DHT22;8882;53.192;8.184;2023-06-22T19:07:56;20.80;99.90
17529;DHT22;8882;53.192;8.184;2023-06-22T19:10:30;20.80;99.90
17529;DHT22;8882;53.192;8.184;2023-06-22T19:13:16;20.60;99.90
17529;DHT22;8882;53.192;8.184;2023-06-22T19:15:47;20.70;99.90
17529;DHT22;8882;53.192;8.184;2023-06-22T19:18:28;20.50;99.90
17529;DHT22;8882;53.192;8.184;2023-06-22T19:21:09;20.40;99.90
17529;DHT22;8882;53.192;8.184;2023-06-22T19:23:37;20.40;99.90
17529;DHT22;8882;53.192;8.184;2023-06-22T19:26:10;20.30;99.90
17529;DHT22;8882;53.192;8.184;2023-06-22T19:31:10;20.00;99.90
17529;DHT22;8882;53.192;8.184;2023-06-22T19:33:37;20.00;99.90
17529;DHT22;8882;53.192;8.184;2023-06-22T19:36:02;19.80;99.90
17529;DHT22;8882;53.192;8.184;2023-06-22T19:38:28;19.60;99.90
17529;DHT22;8882;53.192;8.184;2023-06-22T19:40:56;19.60;99.90
17529;DHT22;8882;53.192;8.184;2023-06-22T19:43:29;19.50;99.90
17529;DHT22;8882;53.192;8.184;2023-06-22T19:45:55;19.40;99.90
17529;DHT22;8882;53.192;8.184;2023-06-22T19:48:28;19.20;99.90
17529;DHT22;8882;53.192;8.184;2023-06-22T19:50:55;19.20;99.90
17529;DHT22;8882;53.192;8.184;2023-06-22T19:53:21;19.30;99.90
17529;DHT22;8882;53.192;8.184;2023-06-22T19:55:48;19.30;99.90
17529;DHT22;8882;53.192;8.184;2023-06-22T19:58:19;19.30;99.90
17529;DHT22;8882;53.192;8.184;2023-06-22T20:00:46;19.30;99.90
17529;DHT22;8882;53.192;8.184;2023-06-22T20:03:25;19.30;99.90
17529;DHT22;8882;53.192;8.184;2023-06-22T20:05:52;19.30;99.90
17529;DHT22;8882;53.192;8.184;2023-06-22T20:08:19;19.30;99.90
17529;DHT22;8882;53.192;8.184;2023-06-22T20:10:45;19.30;99.90
17529;DHT22;8882;53.192;8.184;2023-06-22T20:13:20;19.30;99.90
17529;DHT22;8882;53.192;8.184;2023-06-22T20:15:46;19.30;99.90
17529;DHT22;8882;53.192;8.184;2023-06-22T20:18:14;19.40;99.90
17529;DHT22;8882;53.192;8.184;2023-06-22T20:20:44;19.30;99.90
17529;DHT22;8882;53.192;8.184;2023-06-22T20:23:10;19.40;99.90